Hovedside
METAR-TAF:

METAR-TAF

Lufthavner :

McMinnville, Oregon, USA

breddegrad: 45-11-46N, lengdegrad: 123-07-56W, høyde over havet: 48 m

Gjeldene værobservasjon

Denne rapporten ble laget for 1 time og 1 minutter siden, klokken 04:53 UTC
Flau vind
Temperatur 4°C
Luftfuktighet 100%
Trykk 1020 hPa
Sikt: 16.1 km
Overskyet i en høyde av 3900 ft
lett regn

METAR: KMMV 180453Z AUTO 00000KT 10SM -RA OVC039 04/04 A3013 RMK AO2 SLP204 P0001 T00440039

Tid: 21:54 (05:54 UTC)


TAF: fraværende

Værobservasjoner og værvarsel for over 4000 flyplasser (METAR- og TAF-rapporter).

Tilgjengelige stasjoner er representert av de røde og gule prikkene på kartet.

Hold musepekeren over prikken for å se navnet på stasjonen.

Klikk så for å se værobservasjoner og -varsler.

For å forandre kartet kan du klikke på den grønne knappen med svart kryss for å zoome inn, på den grønne knappen med strek for å zoome ut, eller på de grønne pilene for å se tilstøtende kart.


METAR-TAF: